CANO2: Clear Boggy Creek abv Caney Creek nr Caney, OK

Data processed at Fri Mar 09 2018 22:59


All information presented herein is the property of the government of the United States of America and may be revised or deleted at any time without prior notice.
Dissemination of this information without the expressed written consent of the Public Affairs Office, Tulsa District U.S. Army Corps of Engineers is strictly prohibited.
These data are gathered electronically and, as presented, have not undergone any form of quality control. These data are not guaranteed to be valid or correct.
Go to home page.
Go to station list.

Upstream stations:

Downstream station:
Previous Day
Next Day
Current Day
    
SHEF ID:       CANO2     Clear Boggy Creek abv Caney Cree
STATION TYPE:  

                STAGE  RIV-FLOW  BAT-LOAD
                   ft       cfs      volt
              Ccp-Rev   Ccp-Rev   Ccp-Rev
(US/Central)
03/07 00:00     12.28       428     12.65
03/07 01:00     12.27       425     12.60
03/07 02:00     12.22       415     12.60
03/07 03:00     12.21       413     12.54
03/07 04:00     12.20       411     12.54
03/07 05:00     12.16       402     12.54
03/07 06:00     12.13       396     12.54
03/07 07:00     12.12       394     12.54
03/07 08:00     12.09       387     12.77
03/07 09:00     12.06       381     13.77
03/07 10:00     12.02       373     14.18
03/07 11:00     12.00       369     14.06
03/07 12:00     12.00       369     13.83
03/07 13:00     11.97       363     13.83
03/07 14:00     11.94       357     13.77
03/07 15:00     11.90       347     13.59
03/07 16:00     11.92       353     13.48
03/07 17:00     11.87       341     13.48
03/07 18:00     11.87       341     13.36
03/07 19:00     11.84       336     13.12
03/07 20:00     11.84       336     12.95
03/07 21:00     11.81       330     12.83
03/07 22:00     11.81       330     12.71
03/07 23:00     11.82       332     12.65